createdAt,value
2023-11-24T00:02:20.217Z,11.53
2023-11-24T00:07:23.380Z,7.97
2023-11-24T00:12:26.728Z,7.73
2023-11-24T00:17:31.251Z,7.77
2023-11-24T00:22:34.435Z,3.93
2023-11-24T00:27:38.529Z,1.90
2023-11-24T00:32:44.942Z,2.40
2023-11-24T00:37:48.289Z,1.13
2023-11-24T00:42:51.557Z,2.83
2023-11-24T00:47:56.131Z,3.63
2023-11-24T00:52:59.560Z,1.40
2023-11-24T00:58:02.703Z,2.00
2023-11-24T01:03:07.749Z,3.20
2023-11-24T01:08:13.093Z,2.87
2023-11-24T01:13:22.197Z,1.50
2023-11-24T01:18:29.070Z,2.47
2023-11-24T01:23:32.652Z,3.03
2023-11-24T01:28:36.686Z,2.40
2023-11-24T01:33:44.652Z,4.03
2023-11-24T01:38:50.751Z,4.00
2023-11-24T01:43:59.987Z,4.60
2023-11-24T01:49:06.050Z,4.37
2023-11-24T01:54:09.662Z,10.37
2023-11-24T01:59:16.933Z,7.93
2023-11-24T02:04:22.323Z,6.47
2023-11-24T02:09:28.504Z,6.83
2023-11-24T02:14:31.786Z,4.10
2023-11-24T02:19:58.369Z,9.40
2023-11-24T02:25:23.333Z,5.90
2023-11-24T02:30:42.698Z,9.17
2023-11-24T02:35:45.965Z,5.63
2023-11-24T02:40:51.871Z,8.57
2023-11-24T02:46:14.650Z,4.67
2023-11-24T02:51:21.140Z,5.33
2023-11-24T02:56:25.750Z,8.20
2023-11-24T03:01:28.979Z,7.30
2023-11-24T03:06:32.307Z,7.60
2023-11-24T03:11:37.285Z,9.77
2023-11-24T03:16:41.573Z,8.67
2023-11-24T03:21:44.932Z,6.77
2023-11-24T03:26:49.544Z,11.00
2023-11-24T03:31:52.772Z,7.60
2023-11-24T03:36:55.914Z,6.43
2023-11-24T03:42:00.498Z,6.90
2023-11-24T03:47:03.659Z,7.10
2023-11-24T03:52:07.684Z,6.30
2023-11-24T03:57:12.697Z,6.87
2023-11-24T04:02:16.093Z,4.30
2023-11-24T04:07:19.480Z,6.73
2023-11-24T04:12:24.410Z,3.87
2023-11-24T04:17:27.582Z,3.97
2023-11-24T04:22:30.993Z,6.40
2023-11-24T04:27:35.860Z,6.03
2023-11-24T04:32:39.321Z,6.67
2023-11-24T04:37:42.777Z,8.97
2023-11-24T04:42:47.434Z,7.87
2023-11-24T04:47:50.878Z,6.70
2023-11-24T04:52:54.248Z,8.33
2023-11-24T04:57:59.082Z,6.43
2023-11-24T05:03:02.564Z,5.03
2023-11-24T05:08:06.233Z,7.53
2023-11-24T05:13:11.277Z,6.10
2023-11-24T05:18:14.606Z,10.37
2023-11-24T05:23:17.995Z,6.67
2023-11-24T05:28:22.888Z,9.70
2023-11-24T05:33:26.172Z,8.67
2023-11-24T05:38:29.451Z,12.27
2023-11-24T05:43:35.316Z,11.90
2023-11-24T05:48:39.006Z,6.83
2023-11-24T05:53:42.853Z,7.50
2023-11-24T05:58:47.888Z,5.50
2023-11-24T06:03:52.731Z,8.23
2023-11-24T06:08:56.431Z,6.93
2023-11-24T06:14:03.943Z,11.00
2023-11-24T06:19:07.628Z,10.10
2023-11-24T06:24:28.865Z,11.73
2023-11-24T06:29:42.407Z,10.20
2023-11-24T06:34:46.173Z,5.37
2023-11-24T06:39:52.186Z,8.63
2023-11-24T06:44:59.593Z,8.60
2023-11-24T06:50:05.868Z,5.97
2023-11-24T06:55:17.561Z,11.90
2023-11-24T07:00:23.931Z,7.90
2023-11-24T07:05:31.537Z,8.27
2023-11-24T07:10:35.043Z,6.73
2023-11-24T07:15:42.275Z,7.20
2023-11-24T07:20:50.582Z,9.97
2023-11-24T07:25:55.617Z,6.77
2023-11-24T07:31:05.478Z,6.37
2023-11-24T07:36:20.952Z,7.57
2023-11-24T07:46:55.917Z,11.87
2023-11-24T07:51:59.245Z,10.30
2023-11-24T07:57:02.620Z,9.57
2023-11-24T08:02:11.399Z,7.20
2023-11-24T08:07:14.875Z,6.50
2023-11-24T08:12:20.338Z,5.93
2023-11-24T08:17:25.193Z,8.20
2023-11-24T08:22:29.731Z,6.00
2023-11-24T08:27:33.052Z,4.67
2023-11-24T08:32:37.974Z,9.97
2023-11-24T08:37:41.682Z,6.37
2023-11-24T08:42:46.101Z,5.77
2023-11-24T08:47:50.955Z,7.00
2023-11-24T08:52:54.158Z,4.47
2023-11-24T08:58:00.810Z,4.97
2023-11-24T09:03:09.036Z,5.27
2023-11-24T09:08:12.404Z,4.83
2023-11-24T09:13:17.531Z,5.30
2023-11-24T09:18:25.417Z,2.47
2023-11-24T09:23:28.688Z,4.37
2023-11-24T09:28:35.745Z,1.43
2023-11-24T09:33:43.189Z,2.40
2023-11-24T09:38:47.876Z,3.40
2023-11-24T09:43:51.752Z,4.60
2023-11-24T09:48:57.099Z,3.57
2023-11-24T09:54:04.334Z,3.90
2023-11-24T09:59:10.273Z,3.10
2023-11-24T10:04:15.873Z,3.03
2023-11-24T10:09:26.332Z,3.67
2023-11-24T10:14:29.733Z,1.63
2023-11-24T10:19:34.540Z,5.07
2023-11-24T10:24:39.284Z,3.57
2023-11-24T10:29:42.673Z,3.73
2023-11-24T10:34:48.810Z,4.87
2023-11-24T10:39:55.899Z,3.73
2023-11-24T10:45:05.475Z,3.10
2023-11-24T10:50:13.958Z,2.27
2023-11-24T10:55:18.682Z,5.70
2023-11-24T11:00:24.848Z,2.90
2023-11-24T11:05:43.950Z,2.00
2023-11-24T11:11:07.581Z,1.43
2023-11-24T11:16:15.197Z,3.23
2023-11-24T11:21:38.647Z,6.53
2023-11-24T11:26:50.216Z,1.13
2023-11-24T11:31:54.086Z,2.70
2023-11-24T11:37:13.933Z,5.60
2023-11-24T11:42:17.755Z,3.03
2023-11-24T11:47:24.013Z,1.80
2023-11-24T11:52:32.626Z,1.20
2023-11-24T11:57:37.370Z,4.60
2023-11-24T12:02:41.168Z,5.53
2023-11-24T12:07:49.645Z,4.47
2023-11-24T12:12:53.898Z,4.13
2023-11-24T12:17:58.426Z,4.87
2023-11-24T12:23:05.386Z,2.97
2023-11-24T12:28:11.059Z,4.23
2023-11-24T12:33:20.930Z,4.13
2023-11-24T12:38:26.104Z,4.80
2023-11-24T12:43:34.767Z,3.80
2023-11-24T12:48:41.456Z,3.53
2023-11-24T12:53:48.135Z,3.40
2023-11-24T12:58:52.207Z,2.00
2023-11-24T13:03:55.564Z,2.33
2023-11-24T13:09:01.161Z,2.23
2023-11-24T13:14:04.817Z,1.87
2023-11-24T13:19:09.253Z,2.60
2023-11-24T13:24:14.889Z,3.77
2023-11-24T13:29:18.321Z,3.67
2023-11-24T13:34:22.206Z,6.07
2023-11-24T13:39:30.400Z,3.13
2023-11-24T13:44:35.951Z,4.10
2023-11-24T13:49:40.654Z,5.13
2023-11-24T13:54:45.249Z,6.53
2023-11-24T13:59:48.950Z,2.57
2023-11-24T14:04:52.366Z,2.67
2023-11-24T14:09:57.805Z,4.23
2023-11-24T14:15:02.174Z,4.00
2023-11-24T14:20:08.333Z,3.50
2023-11-24T14:25:15.290Z,2.73
2023-11-24T14:30:19.744Z,1.90
2023-11-24T14:35:23.025Z,2.10
2023-11-24T14:40:30.056Z,6.30
2023-11-24T14:45:34.591Z,7.30
2023-11-24T14:50:38.023Z,3.27
2023-11-24T14:55:42.761Z,5.13
2023-11-24T15:00:46.248Z,1.70
2023-11-24T15:05:56.118Z,2.33
2023-11-24T15:11:05.915Z,0.40
2023-11-24T15:16:13.632Z,0.40
2023-11-24T15:21:29.404Z,0.80
2023-11-24T15:26:37.356Z,0.80
2023-11-24T15:31:44.996Z,0.77
2023-11-24T15:36:50.014Z,0.40
2023-11-24T15:41:55.085Z,0.30
2023-11-24T15:46:58.498Z,1.73
2023-11-24T15:52:03.657Z,1.90
2023-11-24T15:57:10.243Z,0.90
2023-11-24T16:02:16.660Z,4.63
2023-11-24T16:07:22.905Z,1.80
2023-11-24T16:12:33.625Z,1.40
2023-11-24T16:17:36.860Z,1.43
2023-11-24T16:22:40.255Z,1.77
2023-11-24T16:27:44.819Z,3.17
2023-11-24T16:32:49.301Z,4.53
2023-11-24T16:37:52.957Z,3.47
2023-11-24T16:42:58.186Z,4.33
2023-11-24T16:48:01.819Z,4.37
2023-11-24T16:53:06.120Z,3.33
2023-11-24T16:58:11.780Z,4.30
2023-11-24T17:03:15.342Z,2.27
2023-11-24T17:08:20.935Z,1.77
2023-11-24T17:13:26.417Z,1.67
2023-11-24T17:18:29.782Z,2.13
2023-11-24T17:23:34.250Z,3.50
2023-11-24T17:28:39.258Z,2.57
2023-11-24T17:33:42.665Z,2.07
2023-11-24T17:38:46.397Z,3.03
2023-11-24T17:43:51.457Z,2.23
2023-11-24T17:48:55.227Z,3.97
2023-11-24T17:53:59.202Z,1.50
2023-11-24T17:59:04.725Z,2.07
2023-11-24T18:04:08.551Z,4.73
2023-11-24T18:09:11.978Z,4.03
2023-11-24T18:14:18.890Z,3.57
2023-11-24T18:19:22.169Z,5.07
2023-11-24T18:24:26.496Z,5.13
2023-11-24T18:29:31.355Z,3.53
2023-11-24T18:34:34.668Z,2.83
2023-11-24T18:39:37.994Z,2.97
2023-11-24T18:44:42.813Z,4.97
2023-11-24T18:49:46.560Z,1.33
2023-11-24T18:54:50.129Z,4.33
2023-11-24T18:59:54.864Z,5.63
2023-11-24T19:04:58.602Z,3.67
2023-11-24T19:10:02.480Z,3.23
2023-11-24T19:20:41.292Z,3.43
2023-11-24T19:25:45.214Z,4.23
2023-11-24T19:30:53.121Z,4.33
2023-11-24T19:35:56.779Z,2.63
2023-11-24T19:41:00.029Z,2.77
2023-11-24T19:46:06.000Z,3.50
2023-11-24T19:51:10.096Z,4.43
2023-11-24T19:56:14.816Z,3.27
2023-11-24T20:01:29.207Z,1.70
2023-11-24T20:06:33.509Z,4.37
2023-11-24T20:11:37.452Z,2.37
2023-11-24T20:16:43.420Z,2.77
2023-11-24T20:21:47.128Z,4.10
2023-11-24T20:26:50.638Z,4.93
2023-11-24T20:31:55.716Z,3.80
2023-11-24T20:36:59.056Z,7.53
2023-11-24T20:42:02.316Z,2.97
2023-11-24T20:47:09.347Z,2.40
2023-11-24T20:52:12.749Z,2.23
2023-11-24T20:57:16.208Z,1.27
2023-11-24T21:02:21.709Z,2.40
2023-11-24T21:07:25.473Z,2.63
2023-11-24T21:12:29.509Z,2.50
2023-11-24T21:17:34.281Z,0.90
2023-11-24T21:22:38.040Z,2.83
2023-11-24T21:27:41.291Z,0.80
2023-11-24T21:32:46.681Z,1.03
2023-11-24T21:37:50.583Z,2.80
2023-11-24T21:42:55.264Z,2.27
2023-11-24T21:47:59.965Z,2.97
2023-11-24T21:53:03.398Z,2.33
2023-11-24T21:58:06.878Z,3.80
2023-11-24T22:03:11.714Z,2.60
2023-11-24T22:08:15.765Z,2.20
2023-11-24T22:13:19.043Z,3.20
2023-11-24T22:18:23.849Z,2.13
2023-11-24T22:23:29.981Z,2.30
2023-11-24T22:28:34.075Z,2.33
2023-11-24T22:33:38.896Z,1.97
2023-11-24T22:38:42.255Z,0.80
2023-11-24T22:43:45.551Z,2.30
2023-11-24T22:48:50.634Z,1.63
2023-11-24T22:53:54.436Z,1.80
2023-11-24T22:58:59.994Z,0.80
2023-11-24T23:04:06.425Z,1.67
2023-11-24T23:09:09.815Z,1.27
2023-11-24T23:14:13.091Z,1.87
2023-11-24T23:19:17.863Z,0.63
2023-11-24T23:24:21.199Z,0.87
2023-11-24T23:29:25.030Z,1.60
2023-11-24T23:34:29.712Z,0.80
2023-11-24T23:39:35.684Z,1.40
2023-11-24T23:44:38.988Z,5.00
2023-11-24T23:49:44.415Z,2.03
2023-11-24T23:54:47.739Z,3.80
2023-11-24T23:59:52.063Z,3.10
